CheckWX is a tool to help pilots better visualize weather data.  It is not intended as a substitute for an official pre-flight weather briefing.

20:02:02 UTC

KFWN METAR
Sussex Airport
Sussex, New Jersey, USA
Current

1 hour ago

KFWN 291853Z AUTO 36009KT 10SM CLR 03/M09 A3006 RMK AO2 SLP183 T00331089
Observed
Jan-29 @ 18:53 UTC
Wind
  • 360° at 9 KTS
Visibility
10 SM
Flight Rules
VFR
Cloud Levels
  • Clear skies
Temperature
C / 37°F
Dewpoint
-9°C / 16°F
Humidity
41%
Altimeter
30.06" Hg
Pressure
1017.92 hPa
Previous

2 hours ago

KFWN 291753Z AUTO 34007G16KT 10SM CLR 03/M08 A3007 RMK AO2 SLP186 T00281083 10028 21011 58004
Observed
Jan-29 @ 17:53 UTC
Wind
  • 340° at 7 KTS
  • Gusting to 16 KTS
Visibility
10 SM
Flight Rules
VFR
Cloud Levels
  • Clear skies
Temperature
C / 37°F
Dewpoint
-8°C / 18°F
Humidity
45%
Altimeter
30.07" Hg
Pressure
1018.32 hPa
Previous

3 hours ago

KFWN 291653Z AUTO VRB06KT 10SM CLR 02/M08 A3009 RMK AO2 SLP192 T00171083
Observed
Jan-29 @ 16:53 UTC
Wind
  • Variable at 6 KTS
Visibility
10 SM
Flight Rules
VFR
Cloud Levels
  • Clear skies
Temperature
C / 36°F
Dewpoint
-8°C / 18°F
Humidity
48%
Altimeter
30.09" Hg
Pressure
1018.92 hPa